createdAt,value
2023-04-29T00:01:03.580Z,100.00
2023-04-29T00:03:32.509Z,100.00
2023-04-29T00:06:00.157Z,100.00
2023-04-29T00:08:27.015Z,100.00
2023-04-29T00:10:53.524Z,100.00
2023-04-29T00:13:20.035Z,100.00
2023-04-29T00:15:46.514Z,100.00
2023-04-29T00:18:14.078Z,100.00
2023-04-29T00:20:40.621Z,100.00
2023-04-29T00:23:07.689Z,100.00
2023-04-29T00:25:34.215Z,100.00
2023-04-29T00:28:02.172Z,100.00
2023-04-29T00:30:29.100Z,100.00
2023-04-29T00:32:55.743Z,100.00
2023-04-29T00:35:22.382Z,100.00
2023-04-29T00:37:49.403Z,100.00
2023-04-29T00:40:17.358Z,100.00
2023-04-29T00:42:43.894Z,100.00
2023-04-29T00:45:13.834Z,100.00
2023-04-29T00:47:40.375Z,100.00
2023-04-29T00:50:07.896Z,100.00
2023-04-29T00:52:35.224Z,100.00
2023-04-29T00:55:02.662Z,100.00
2023-04-29T00:57:30.092Z,100.00
2023-04-29T00:59:58.415Z,100.00
2023-04-29T01:02:26.610Z,100.00
2023-04-29T01:04:53.183Z,100.00
2023-04-29T01:07:34.511Z,100.00
2023-04-29T01:10:10.655Z,100.00
2023-04-29T01:12:37.106Z,100.00
2023-04-29T01:15:09.034Z,100.00
2023-04-29T01:17:47.630Z,100.00
2023-04-29T01:20:15.456Z,100.00
2023-04-29T01:22:42.442Z,100.00
2023-04-29T01:25:09.974Z,100.00
2023-04-29T01:28:24.245Z,100.00
2023-04-29T01:31:11.264Z,100.00
2023-04-29T01:33:42.874Z,100.00
2023-04-29T01:36:19.570Z,100.00
2023-04-29T01:38:58.087Z,100.00
2023-04-29T01:41:49.287Z,100.00
2023-04-29T01:44:27.259Z,100.00
2023-04-29T01:46:54.413Z,100.00
2023-04-29T01:49:27.905Z,100.00
2023-04-29T01:51:55.868Z,100.00
2023-04-29T01:54:22.854Z,100.00
2023-04-29T01:56:49.614Z,100.00
2023-04-29T01:59:23.603Z,100.00
2023-04-29T02:02:05.555Z,100.00
2023-04-29T02:04:34.434Z,100.00
2023-04-29T02:07:03.252Z,100.00
2023-04-29T02:09:30.304Z,100.00
2023-04-29T02:12:05.727Z,100.00
2023-04-29T02:14:35.042Z,100.00
2023-04-29T02:17:03.610Z,100.00
2023-04-29T02:19:30.544Z,100.00
2023-04-29T02:21:57.147Z,100.00
2023-04-29T02:24:25.645Z,100.00
2023-04-29T02:26:52.158Z,100.00
2023-04-29T02:29:19.023Z,100.00
2023-04-29T02:31:45.608Z,100.00
2023-04-29T02:34:12.142Z,100.00
2023-04-29T02:36:38.624Z,100.00
2023-04-29T02:39:05.288Z,100.00
2023-04-29T02:41:31.721Z,100.00
2023-04-29T02:43:58.173Z,100.00
2023-04-29T02:46:24.851Z,100.00
2023-04-29T02:48:52.891Z,100.00
2023-04-29T02:51:20.080Z,100.00
2023-04-29T02:53:46.836Z,100.00
2023-04-29T02:56:13.273Z,100.00
2023-04-29T02:58:39.839Z,100.00
2023-04-29T03:01:07.125Z,100.00
2023-04-29T03:03:33.744Z,100.00
2023-04-29T03:06:00.349Z,100.00
2023-04-29T03:08:27.970Z,100.00
2023-04-29T03:10:54.465Z,100.00
2023-04-29T03:13:20.999Z,100.00
2023-04-29T03:15:47.612Z,100.00
2023-04-29T03:18:14.563Z,100.00
2023-04-29T03:20:41.037Z,100.00
2023-04-29T03:23:07.475Z,100.00
2023-04-29T03:25:33.931Z,100.00
2023-04-29T03:28:00.378Z,100.00
2023-04-29T03:30:26.945Z,100.00
2023-04-29T03:32:56.723Z,100.00
2023-04-29T03:35:23.660Z,100.00
2023-04-29T03:38:16.134Z,100.00
2023-04-29T03:40:44.931Z,100.00
2023-04-29T03:43:12.455Z,100.00
2023-04-29T03:45:39.109Z,100.00
2023-04-29T03:48:06.504Z,100.00
2023-04-29T03:50:33.125Z,100.00
2023-04-29T03:52:59.687Z,100.00
2023-04-29T03:55:29.437Z,100.00
2023-04-29T03:57:55.867Z,100.00
2023-04-29T04:00:22.522Z,100.00
2023-04-29T04:02:54.193Z,100.00
2023-04-29T04:05:21.481Z,100.00
2023-04-29T04:07:53.217Z,100.00
2023-04-29T04:10:31.858Z,100.00
2023-04-29T04:13:00.654Z,100.00
2023-04-29T04:15:27.113Z,100.00
2023-04-29T04:17:53.855Z,100.00
2023-04-29T04:20:20.515Z,100.00
2023-04-29T04:22:49.113Z,100.00
2023-04-29T04:25:20.501Z,100.00
2023-04-29T04:27:47.077Z,100.00
2023-04-29T04:30:23.429Z,100.00
2023-04-29T04:32:49.929Z,100.00
2023-04-29T04:35:16.754Z,100.00
2023-04-29T04:37:43.290Z,100.00
2023-04-29T04:40:11.944Z,100.00
2023-04-29T04:42:55.283Z,100.00
2023-04-29T04:45:22.641Z,100.00
2023-04-29T04:47:50.835Z,100.00
2023-04-29T04:50:21.340Z,100.00
2023-04-29T04:52:50.653Z,100.00
2023-04-29T04:55:37.089Z,100.00
2023-04-29T04:58:03.739Z,100.00
2023-04-29T05:00:30.376Z,100.00
2023-04-29T05:02:57.313Z,100.00
2023-04-29T05:05:24.178Z,100.00
2023-04-29T05:07:51.319Z,100.00
2023-04-29T05:10:26.372Z,100.00
2023-04-29T05:12:54.883Z,100.00
2023-04-29T05:15:21.643Z,100.00
2023-04-29T05:17:51.086Z,100.00
2023-04-29T05:20:17.718Z,100.00
2023-04-29T05:22:44.177Z,100.00
2023-04-29T05:25:10.755Z,100.00
2023-04-29T05:27:37.204Z,100.00
2023-04-29T05:30:07.339Z,100.00
2023-04-29T05:32:34.141Z,100.00
2023-04-29T05:35:00.906Z,100.00
2023-04-29T05:37:30.899Z,100.00
2023-04-29T05:40:13.821Z,95.28
2023-04-29T05:42:46.482Z,87.34
2023-04-29T05:45:13.102Z,87.02
2023-04-29T05:47:39.643Z,89.05
2023-04-29T05:50:06.787Z,81.19
2023-04-29T05:52:33.228Z,76.84
2023-04-29T05:54:59.742Z,73.34
2023-04-29T05:57:26.194Z,83.34
2023-04-29T05:59:55.291Z,88.44
2023-04-29T06:02:22.270Z,95.73
2023-04-29T06:04:49.281Z,93.08
2023-04-29T06:07:27.951Z,84.59
2023-04-29T06:09:59.030Z,75.23
2023-04-29T06:12:26.531Z,70.92
2023-04-29T06:14:53.152Z,68.07
2023-04-29T06:17:20.401Z,70.88
2023-04-29T06:19:46.896Z,75.41
2023-04-29T06:22:13.378Z,77.90
2023-04-29T06:24:47.323Z,80.64
2023-04-29T06:27:18.894Z,79.79
2023-04-29T06:29:45.645Z,79.79
2023-04-29T06:32:13.940Z,83.35
2023-04-29T06:34:40.750Z,86.81
2023-04-29T06:37:23.424Z,90.39
2023-04-29T06:39:56.996Z,91.52
2023-04-29T06:42:41.611Z,91.45
2023-04-29T06:45:31.916Z,93.82
2023-04-29T06:48:22.245Z,93.78
2023-04-29T06:50:58.524Z,93.45
2023-04-29T06:53:25.008Z,94.13
2023-04-29T06:55:51.843Z,92.72
2023-04-29T06:58:20.366Z,92.40
2023-04-29T07:00:48.703Z,87.51
2023-04-29T07:03:16.033Z,86.81
2023-04-29T07:05:45.308Z,85.07
2023-04-29T07:08:12.973Z,83.81
2023-04-29T07:10:39.606Z,84.96
2023-04-29T07:13:06.065Z,86.39
2023-04-29T07:15:36.859Z,86.17
2023-04-29T07:18:05.299Z,88.19
2023-04-29T07:20:32.428Z,87.91
2023-04-29T07:22:59.316Z,86.58
2023-04-29T07:25:29.481Z,89.78
2023-04-29T07:27:56.610Z,93.56
2023-04-29T07:30:25.142Z,95.29
2023-04-29T07:32:51.853Z,96.61
2023-04-29T07:35:18.943Z,98.25
2023-04-29T07:37:45.865Z,98.54
2023-04-29T07:40:13.073Z,98.41
2023-04-29T07:42:39.603Z,100.00
2023-04-29T07:45:07.861Z,99.58
2023-04-29T07:47:34.435Z,99.05
2023-04-29T07:50:01.271Z,97.63
2023-04-29T07:52:27.845Z,93.23
2023-04-29T07:54:56.176Z,93.99
2023-04-29T07:57:22.997Z,91.79
2023-04-29T07:59:55.560Z,92.53
2023-04-29T08:02:22.150Z,92.89
2023-04-29T08:04:51.297Z,91.52
2023-04-29T08:07:18.156Z,91.84
2023-04-29T08:09:44.675Z,90.67
2023-04-29T08:12:11.101Z,93.38
2023-04-29T08:14:40.274Z,92.54
2023-04-29T08:17:07.423Z,91.51
2023-04-29T08:19:33.980Z,92.15
2023-04-29T08:22:01.152Z,92.82
2023-04-29T08:24:29.029Z,92.30
2023-04-29T08:26:55.487Z,92.98
2023-04-29T08:29:21.955Z,91.55
2023-04-29T08:31:48.497Z,93.06
2023-04-29T08:34:15.048Z,94.26
2023-04-29T08:36:41.545Z,92.66
2023-04-29T08:39:08.851Z,93.40
2023-04-29T08:41:39.968Z,93.22
2023-04-29T08:44:06.952Z,92.00
2023-04-29T08:46:33.799Z,91.96
2023-04-29T08:49:03.810Z,93.37
2023-04-29T08:51:32.244Z,92.56
2023-04-29T08:53:58.792Z,94.26
2023-04-29T08:56:27.854Z,93.04
2023-04-29T08:58:58.298Z,92.68
2023-04-29T09:01:28.750Z,92.73
2023-04-29T09:04:10.256Z,92.03
2023-04-29T09:06:36.909Z,91.32
2023-04-29T09:09:03.815Z,92.27
2023-04-29T09:11:30.459Z,90.25
2023-04-29T09:14:04.493Z,91.88
2023-04-29T09:16:31.230Z,91.97
2023-04-29T09:18:58.102Z,92.27
2023-04-29T09:21:29.525Z,93.17
2023-04-29T09:23:57.964Z,92.27
2023-04-29T09:26:25.049Z,91.90
2023-04-29T09:29:06.522Z,93.17
2023-04-29T09:31:33.429Z,92.64
2023-04-29T09:33:59.937Z,93.51
2023-04-29T09:36:49.634Z,93.58
2023-04-29T09:39:20.958Z,92.32
2023-04-29T09:41:50.560Z,92.00
2023-04-29T09:44:17.146Z,91.78
2023-04-29T09:46:43.937Z,91.14
2023-04-29T09:49:32.724Z,93.13
2023-04-29T09:52:01.392Z,92.18
2023-04-29T09:54:29.813Z,90.73
2023-04-29T09:56:58.491Z,89.92
2023-04-29T09:59:25.593Z,89.73
2023-04-29T10:01:54.481Z,88.36
2023-04-29T10:04:22.725Z,87.46
2023-04-29T10:06:51.417Z,87.41
2023-04-29T10:09:19.502Z,87.12
2023-04-29T10:11:48.090Z,87.17
2023-04-29T10:14:22.442Z,87.51
2023-04-29T10:16:54.484Z,86.26
2023-04-29T10:19:27.614Z,84.77
2023-04-29T10:21:57.714Z,86.49
2023-04-29T10:24:25.815Z,86.26
2023-04-29T10:26:56.110Z,86.44
2023-04-29T10:29:25.397Z,86.37
2023-04-29T10:31:53.165Z,86.08
2023-04-29T10:34:20.580Z,85.80
2023-04-29T10:36:47.411Z,81.88
2023-04-29T10:39:26.328Z,81.19
2023-04-29T10:41:53.888Z,81.29
2023-04-29T10:44:20.339Z,81.43
2023-04-29T10:46:46.856Z,78.99
2023-04-29T10:49:13.350Z,79.65
2023-04-29T10:51:45.018Z,81.02
2023-04-29T10:54:16.629Z,78.09
2023-04-29T10:56:50.953Z,78.17
2023-04-29T10:59:22.099Z,77.44
2023-04-29T11:01:55.211Z,77.70
2023-04-29T11:04:22.949Z,77.33
2023-04-29T11:06:55.317Z,76.86
2023-04-29T11:09:30.664Z,77.45
2023-04-29T11:12:05.348Z,75.86
2023-04-29T11:14:51.255Z,77.12
2023-04-29T11:17:23.285Z,77.02
2023-04-29T11:19:51.648Z,76.97
2023-04-29T11:22:37.751Z,79.17
2023-04-29T11:25:19.023Z,78.04
2023-04-29T11:33:41.793Z,79.82
2023-04-29T11:36:17.364Z,78.38
2023-04-29T11:38:59.428Z,75.93
2023-04-29T11:41:33.969Z,77.01
2023-04-29T11:44:11.012Z,75.71
2023-04-29T11:46:47.947Z,75.35
2023-04-29T11:49:16.910Z,74.95
2023-04-29T11:51:43.409Z,76.94
2023-04-29T11:54:09.916Z,76.94
2023-04-29T11:56:38.217Z,75.39
2023-04-29T11:59:08.031Z,76.55
2023-04-29T12:01:35.890Z,75.97
2023-04-29T12:04:03.294Z,75.73
2023-04-29T12:06:30.637Z,76.15
2023-04-29T12:09:01.742Z,76.17
2023-04-29T12:11:28.850Z,76.37
2023-04-29T12:13:56.692Z,78.60
2023-04-29T12:16:24.159Z,80.43
2023-04-29T12:18:54.157Z,81.42
2023-04-29T12:21:22.522Z,82.30
2023-04-29T12:23:49.024Z,80.58
2023-04-29T12:26:17.302Z,81.95
2023-04-29T12:28:43.739Z,81.10
2023-04-29T12:31:13.959Z,79.84
2023-04-29T12:33:44.259Z,79.62
2023-04-29T12:36:18.400Z,79.47
2023-04-29T12:38:45.410Z,78.73
2023-04-29T12:41:14.440Z,81.30
2023-04-29T12:43:41.675Z,80.43
2023-04-29T12:46:10.039Z,80.97
2023-04-29T12:48:44.012Z,81.48
2023-04-29T12:51:11.552Z,82.33
2023-04-29T12:53:38.896Z,82.37
2023-04-29T12:56:06.492Z,83.91
2023-04-29T12:58:34.830Z,83.00
2023-04-29T13:01:01.411Z,84.76
2023-04-29T13:03:28.671Z,83.84
2023-04-29T13:05:55.313Z,83.97
2023-04-29T13:08:22.718Z,85.49
2023-04-29T13:10:49.633Z,86.69
2023-04-29T13:13:16.277Z,86.93
2023-04-29T13:15:42.766Z,83.97
2023-04-29T13:18:09.217Z,84.64
2023-04-29T13:20:40.957Z,83.13
2023-04-29T13:23:08.665Z,82.94
2023-04-29T13:25:35.131Z,82.22
2023-04-29T13:28:01.924Z,82.89
2023-04-29T13:30:28.431Z,82.10
2023-04-29T13:32:59.257Z,78.50
2023-04-29T13:35:35.976Z,78.92
2023-04-29T13:38:02.792Z,80.94
2023-04-29T13:40:30.864Z,79.63
2023-04-29T13:43:04.352Z,78.77
2023-04-29T13:45:38.783Z,77.33
2023-04-29T13:48:16.309Z,78.43
2023-04-29T13:53:50.856Z,76.45
2023-04-29T13:59:19.526Z,75.61
2023-04-29T14:02:14.931Z,76.03
2023-04-29T14:04:11.604Z,78.23
2023-04-29T14:06:38.363Z,77.54
2023-04-29T14:09:04.819Z,81.03
2023-04-29T14:11:31.777Z,81.52
2023-04-29T14:13:58.212Z,81.87
2023-04-29T14:16:24.854Z,81.81
2023-04-29T14:18:51.488Z,81.59
2023-04-29T14:21:17.995Z,82.26
2023-04-29T14:23:44.513Z,83.41
2023-04-29T14:26:27.302Z,83.85
2023-04-29T14:28:59.698Z,84.75
2023-04-29T14:31:28.166Z,82.81
2023-04-29T14:33:59.634Z,82.30
2023-04-29T14:36:26.811Z,82.23
2023-04-29T14:38:54.094Z,81.97
2023-04-29T14:41:23.571Z,82.70
2023-04-29T14:43:50.073Z,80.63
2023-04-29T14:46:17.018Z,77.50
2023-04-29T14:48:43.748Z,74.43
2023-04-29T14:51:10.625Z,72.68
2023-04-29T14:53:37.158Z,69.20
2023-04-29T14:56:03.873Z,71.85
2023-04-29T14:58:30.522Z,69.58
2023-04-29T15:00:57.052Z,70.04
2023-04-29T15:03:23.624Z,69.86
2023-04-29T15:05:51.386Z,71.18
2023-04-29T15:08:19.160Z,70.09
2023-04-29T15:10:47.326Z,72.08
2023-04-29T15:13:13.875Z,72.17
2023-04-29T15:15:40.755Z,71.42
2023-04-29T15:18:08.785Z,72.24
2023-04-29T15:20:36.680Z,72.50
2023-04-29T15:23:04.173Z,73.68
2023-04-29T15:25:33.321Z,72.85
2023-04-29T15:28:00.345Z,70.31
2023-04-29T15:30:27.269Z,72.19
2023-04-29T15:32:54.962Z,72.99
2023-04-29T15:35:21.612Z,74.05
2023-04-29T15:37:48.046Z,72.12
2023-04-29T15:40:14.623Z,71.80
2023-04-29T15:42:41.070Z,70.49
2023-04-29T15:45:08.831Z,69.87
2023-04-29T15:47:35.916Z,72.63
2023-04-29T15:50:03.237Z,71.64
2023-04-29T15:52:29.682Z,72.73
2023-04-29T15:54:56.131Z,72.25
2023-04-29T15:57:22.618Z,72.82
2023-04-29T15:59:49.109Z,71.82
2023-04-29T16:02:15.979Z,72.47
2023-04-29T16:04:42.443Z,72.72
2023-04-29T16:07:09.150Z,72.38
2023-04-29T16:09:35.870Z,73.01
2023-04-29T16:12:02.392Z,73.93
2023-04-29T16:14:29.977Z,74.06
2023-04-29T16:16:56.594Z,74.77
2023-04-29T16:19:23.167Z,74.43
2023-04-29T16:21:49.617Z,75.24
2023-04-29T16:24:16.137Z,74.13
2023-04-29T16:26:42.780Z,74.75
2023-04-29T16:29:10.016Z,76.32
2023-04-29T16:31:36.514Z,77.36
2023-04-29T16:34:03.300Z,77.17
2023-04-29T16:36:30.133Z,77.46
2023-04-29T16:38:57.861Z,75.94
2023-04-29T16:41:26.018Z,75.13
2023-04-29T16:43:55.823Z,75.93
2023-04-29T16:46:22.430Z,78.54
2023-04-29T16:48:51.830Z,76.41
2023-04-29T16:51:18.813Z,76.70
2023-04-29T16:53:45.726Z,77.56
2023-04-29T16:56:12.368Z,77.92
2023-04-29T16:58:38.959Z,79.77
2023-04-29T17:01:07.270Z,77.96
2023-04-29T17:03:33.833Z,78.74
2023-04-29T17:06:00.504Z,79.88
2023-04-29T17:08:27.213Z,80.76
2023-04-29T17:10:53.961Z,81.17
2023-04-29T17:13:20.732Z,81.33
2023-04-29T17:15:47.813Z,81.09
2023-04-29T17:18:14.317Z,80.61
2023-04-29T17:20:42.028Z,80.21
2023-04-29T17:23:08.796Z,81.02
2023-04-29T17:25:37.517Z,81.70
2023-04-29T17:28:04.537Z,81.88
2023-04-29T17:30:31.328Z,83.41
2023-04-29T17:32:57.933Z,84.20
2023-04-29T17:35:24.695Z,84.36
2023-04-29T17:37:51.159Z,84.72
2023-04-29T17:40:17.619Z,85.19
2023-04-29T17:42:44.079Z,85.58
2023-04-29T17:45:11.168Z,85.38
2023-04-29T17:47:37.599Z,85.99
2023-04-29T17:50:04.267Z,86.98
2023-04-29T17:52:31.505Z,87.27
2023-04-29T17:54:57.971Z,86.34
2023-04-29T17:57:24.446Z,89.16
2023-04-29T17:59:50.987Z,89.03
2023-04-29T18:02:17.431Z,86.40
2023-04-29T18:04:43.850Z,89.30
2023-04-29T18:07:10.396Z,87.99
2023-04-29T18:09:36.849Z,88.43
2023-04-29T18:12:03.633Z,87.62
2023-04-29T18:14:31.007Z,88.45
2023-04-29T18:17:00.917Z,87.51
2023-04-29T18:19:28.061Z,89.70
2023-04-29T18:21:59.201Z,88.38
2023-04-29T18:24:26.049Z,89.75
2023-04-29T18:26:52.672Z,87.25
2023-04-29T18:29:19.093Z,88.66
2023-04-29T18:31:46.235Z,89.90
2023-04-29T18:34:12.698Z,90.82
2023-04-29T18:36:39.128Z,90.43
2023-04-29T18:39:05.554Z,90.96
2023-04-29T18:41:33.090Z,89.98
2023-04-29T18:43:59.504Z,89.36
2023-04-29T18:46:26.011Z,90.53
2023-04-29T18:48:52.442Z,91.47
2023-04-29T18:51:19.093Z,90.70
2023-04-29T18:53:45.623Z,89.83
2023-04-29T18:56:12.252Z,88.61
2023-04-29T18:58:38.673Z,91.76
2023-04-29T19:01:05.905Z,90.22
2023-04-29T19:03:32.408Z,93.26
2023-04-29T19:05:58.967Z,92.52
2023-04-29T19:08:25.799Z,92.00
2023-04-29T19:10:53.460Z,91.88
2023-04-29T19:13:19.993Z,91.96
2023-04-29T19:15:50.445Z,94.13
2023-04-29T19:18:20.258Z,94.33
2023-04-29T19:20:47.000Z,93.77
2023-04-29T19:23:13.458Z,94.71
2023-04-29T19:25:40.011Z,95.47
2023-04-29T19:28:06.486Z,95.92
2023-04-29T19:30:33.410Z,94.78
2023-04-29T19:32:59.921Z,94.69
2023-04-29T19:35:26.956Z,93.31
2023-04-29T19:37:54.773Z,94.68
2023-04-29T19:40:21.252Z,95.27
2023-04-29T19:42:47.705Z,96.47
2023-04-29T19:45:14.315Z,96.84
2023-04-29T19:47:41.009Z,96.42
2023-04-29T19:50:07.802Z,96.46
2023-04-29T19:52:34.306Z,96.29
2023-04-29T19:55:00.798Z,96.78
2023-04-29T19:57:28.318Z,97.07
2023-04-29T19:59:54.998Z,97.57
2023-04-29T20:02:21.922Z,97.64
2023-04-29T20:04:48.384Z,97.54
2023-04-29T20:07:15.012Z,98.53
2023-04-29T20:09:41.571Z,98.05
2023-04-29T20:12:08.048Z,98.40
2023-04-29T20:14:34.498Z,99.21
2023-04-29T20:17:01.184Z,98.42
2023-04-29T20:19:27.782Z,98.96
2023-04-29T20:21:54.331Z,100.00
2023-04-29T20:24:20.859Z,100.00
2023-04-29T20:26:47.597Z,100.00
2023-04-29T20:32:10.873Z,100.00
2023-04-29T20:34:40.028Z,100.00
2023-04-29T20:37:09.433Z,100.00
2023-04-29T20:40:36.611Z,100.00
2023-04-29T20:43:14.337Z,100.00
2023-04-29T20:46:07.212Z,100.00
2023-04-29T20:49:06.006Z,100.00
2023-04-29T20:51:59.731Z,100.00
2023-04-29T20:55:12.108Z,100.00
2023-04-29T20:58:12.168Z,100.00
2023-04-29T21:01:02.409Z,100.00
2023-04-29T21:04:02.948Z,100.00
2023-04-29T21:06:32.135Z,100.00
2023-04-29T21:09:10.407Z,100.00
2023-04-29T21:12:15.706Z,100.00
2023-04-29T21:14:49.270Z,100.00
2023-04-29T21:17:19.539Z,100.00
2023-04-29T21:20:12.614Z,100.00
2023-04-29T21:22:44.126Z,100.00
2023-04-29T21:25:12.827Z,100.00
2023-04-29T21:27:41.482Z,100.00
2023-04-29T21:30:22.976Z,100.00
2023-04-29T21:33:09.933Z,100.00
2023-04-29T21:35:57.757Z,100.00
2023-04-29T21:38:30.069Z,100.00
2023-04-29T21:40:59.689Z,100.00
2023-04-29T21:43:27.625Z,100.00
2023-04-29T21:45:54.786Z,100.00
2023-04-29T21:48:21.890Z,100.00
2023-04-29T21:50:48.881Z,100.00
2023-04-29T21:53:16.572Z,100.00
2023-04-29T21:55:43.288Z,100.00
2023-04-29T21:58:10.908Z,100.00
2023-04-29T22:00:39.075Z,100.00
2023-04-29T22:03:10.766Z,100.00
2023-04-29T22:05:37.348Z,100.00
2023-04-29T22:08:07.017Z,100.00
2023-04-29T22:10:33.522Z,100.00
2023-04-29T22:13:00.080Z,100.00
2023-04-29T22:15:28.756Z,100.00
2023-04-29T22:17:56.835Z,100.00
2023-04-29T22:20:23.459Z,100.00
2023-04-29T22:22:49.976Z,100.00
2023-04-29T22:25:16.547Z,99.51
2023-04-29T22:27:42.998Z,99.63
2023-04-29T22:30:09.855Z,99.39
2023-04-29T22:32:36.351Z,100.00
2023-04-29T22:35:03.017Z,100.00
2023-04-29T22:37:29.499Z,100.00
2023-04-29T22:39:56.853Z,100.00
2023-04-29T22:42:23.584Z,98.32
2023-04-29T22:44:50.029Z,99.79
2023-04-29T22:47:16.786Z,99.98
2023-04-29T22:49:43.289Z,100.00
2023-04-29T22:52:09.780Z,100.00
2023-04-29T22:54:36.291Z,100.00
2023-04-29T22:57:03.958Z,98.98
2023-04-29T22:59:30.726Z,99.38
2023-04-29T23:01:57.369Z,100.00
2023-04-29T23:04:24.706Z,100.00
2023-04-29T23:06:51.678Z,100.00
2023-04-29T23:09:18.190Z,100.00
2023-04-29T23:11:44.924Z,100.00
2023-04-29T23:14:11.396Z,100.00
2023-04-29T23:16:37.841Z,100.00
2023-04-29T23:19:04.699Z,100.00
2023-04-29T23:21:31.167Z,100.00
2023-04-29T23:23:57.733Z,100.00
2023-04-29T23:26:24.256Z,100.00
2023-04-29T23:28:50.722Z,100.00
2023-04-29T23:31:17.276Z,100.00
2023-04-29T23:33:44.224Z,100.00
2023-04-29T23:36:11.762Z,100.00
2023-04-29T23:38:38.256Z,100.00
2023-04-29T23:41:04.918Z,100.00
2023-04-29T23:43:32.055Z,100.00
2023-04-29T23:45:58.529Z,100.00
2023-04-29T23:48:25.022Z,100.00
2023-04-29T23:50:51.457Z,100.00
2023-04-29T23:53:18.660Z,100.00
2023-04-29T23:55:45.346Z,100.00
2023-04-29T23:58:11.850Z,100.00
